createdAt,value
2023-03-24T00:00:37.066Z,3.38
2023-03-24T00:03:05.373Z,5.70
2023-03-24T00:05:34.820Z,3.60
2023-03-24T00:08:04.651Z,2.77
2023-03-24T00:10:34.830Z,3.00
2023-03-24T00:15:31.435Z,3.17
2023-03-24T00:17:59.552Z,3.05
2023-03-24T00:20:28.983Z,4.00
2023-03-24T00:22:58.737Z,3.67
2023-03-24T00:25:33.836Z,3.38
2023-03-24T00:28:02.947Z,3.92
2023-03-24T00:30:31.690Z,3.95
2023-03-24T00:33:01.850Z,3.42
2023-03-24T00:38:00.569Z,3.85
2023-03-24T00:40:29.501Z,3.97
2023-03-24T00:42:59.127Z,3.83
2023-03-24T00:45:30.141Z,5.07
2023-03-24T00:47:58.455Z,3.90
2023-03-24T00:50:27.599Z,5.57
2023-03-24T00:52:58.370Z,5.45
2023-03-24T00:57:57.103Z,4.70
2023-03-24T01:00:26.762Z,5.22
2023-03-24T01:02:57.110Z,4.53
2023-03-24T01:05:28.546Z,3.20
2023-03-24T01:07:58.258Z,3.33
2023-03-24T01:10:28.293Z,5.00
2023-03-24T01:12:58.166Z,4.13
2023-03-24T01:15:28.213Z,3.97
2023-03-24T01:17:56.512Z,3.03
2023-03-24T01:20:25.723Z,6.22
2023-03-24T01:22:53.687Z,7.43
2023-03-24T01:25:23.595Z,4.32
2023-03-24T01:27:54.065Z,3.72
2023-03-24T01:30:24.598Z,3.88
2023-03-24T01:32:53.882Z,4.25
2023-03-24T01:35:22.637Z,3.85
2023-03-24T01:37:50.829Z,3.92
2023-03-24T01:40:21.278Z,4.07
2023-03-24T01:42:51.165Z,4.63
2023-03-24T01:45:46.136Z,4.85
2023-03-24T01:48:17.409Z,4.47
2023-03-24T01:50:54.127Z,3.95
2023-03-24T01:53:22.733Z,4.07
2023-03-24T01:55:50.985Z,4.30
2023-03-24T01:58:22.413Z,3.78
2023-03-24T02:01:06.425Z,4.10
2023-03-24T02:03:58.140Z,5.07
2023-03-24T02:06:27.390Z,6.45
2023-03-24T02:09:01.839Z,3.97
2023-03-24T02:11:33.772Z,3.60
2023-03-24T02:14:07.089Z,3.92
2023-03-24T02:17:00.920Z,3.38
2023-03-24T02:19:48.950Z,3.10
2023-03-24T02:22:49.702Z,3.72
2023-03-24T02:25:51.354Z,3.58
2023-03-24T02:28:32.122Z,3.33
2023-03-24T02:31:34.848Z,3.47
2023-03-24T02:34:32.855Z,2.97
2023-03-24T02:37:27.573Z,3.47
2023-03-24T02:40:15.319Z,4.88
2023-03-24T02:42:54.140Z,4.72
2023-03-24T02:45:28.728Z,6.82
2023-03-24T02:48:09.295Z,4.85
2023-03-24T02:50:43.847Z,6.22
2023-03-24T02:53:18.885Z,6.10
2023-03-24T02:56:13.889Z,6.15
2023-03-24T02:58:48.334Z,6.35
2023-03-24T03:01:32.142Z,7.30
2023-03-24T03:04:18.151Z,8.45
2023-03-24T03:06:52.431Z,7.35
2023-03-24T03:09:23.137Z,7.55
2023-03-24T03:11:57.720Z,7.53
2023-03-24T03:14:30.405Z,8.13
2023-03-24T03:17:01.992Z,7.95
2023-03-24T03:19:34.430Z,8.52
2023-03-24T03:22:06.025Z,8.35
2023-03-24T03:24:41.173Z,7.97
2023-03-24T03:27:18.625Z,8.00
2023-03-24T03:29:50.921Z,8.00
2023-03-24T03:32:24.801Z,8.80
2023-03-24T03:34:58.214Z,8.60
2023-03-24T03:37:31.509Z,8.55
2023-03-24T03:40:03.315Z,9.18
2023-03-24T03:42:33.870Z,9.48
2023-03-24T03:45:01.958Z,9.40
2023-03-24T03:47:29.956Z,10.00
2023-03-24T03:49:58.209Z,8.95
2023-03-24T03:52:26.166Z,10.13
2023-03-24T03:54:55.921Z,9.68
2023-03-24T03:57:24.301Z,9.80
2023-03-24T04:00:19.927Z,10.00
2023-03-24T04:03:22.318Z,9.48
2023-03-24T04:06:01.929Z,9.63
2023-03-24T04:08:39.056Z,9.75
2023-03-24T04:11:37.260Z,9.65
2023-03-24T04:14:39.641Z,9.90
2023-03-24T04:17:57.498Z,9.10
2023-03-24T04:21:02.252Z,9.82
2023-03-24T04:23:44.659Z,10.02
2023-03-24T04:26:26.690Z,8.32
2023-03-24T04:29:09.931Z,8.48
2023-03-24T04:31:44.039Z,8.50
2023-03-24T04:34:21.304Z,8.88
2023-03-24T04:36:55.295Z,8.02
2023-03-24T04:39:46.891Z,7.70
2023-03-24T04:42:26.574Z,8.50
2023-03-24T04:44:57.652Z,8.20
2023-03-24T04:47:51.003Z,7.82
2023-03-24T04:50:53.776Z,7.75
2023-03-24T04:53:22.173Z,6.70
2023-03-24T04:56:05.832Z,7.28
2023-03-24T04:58:59.913Z,7.40
2023-03-24T05:01:30.232Z,7.57
2023-03-24T05:04:17.117Z,6.55
2023-03-24T05:06:47.151Z,6.78
2023-03-24T05:09:21.343Z,7.13
2023-03-24T05:11:49.747Z,7.38
2023-03-24T05:14:18.217Z,7.40
2023-03-24T05:16:46.349Z,7.45
2023-03-24T05:19:16.040Z,7.15
2023-03-24T05:21:43.900Z,7.63
2023-03-24T05:24:13.545Z,6.88
2023-03-24T05:26:41.986Z,7.57
2023-03-24T05:29:15.891Z,7.85
2023-03-24T05:31:45.102Z,7.50
2023-03-24T05:34:22.662Z,8.05
2023-03-24T05:37:17.752Z,7.55
2023-03-24T05:39:51.372Z,8.35
2023-03-24T05:42:36.472Z,9.48
2023-03-24T05:45:06.568Z,9.52
2023-03-24T05:47:34.664Z,9.38
2023-03-24T05:50:02.696Z,8.98
2023-03-24T05:52:33.126Z,11.50
2023-03-24T05:55:19.348Z,11.43
2023-03-24T05:57:57.302Z,14.43
2023-03-24T06:00:52.176Z,10.60
2023-03-24T06:03:34.435Z,9.43
2023-03-24T06:06:08.893Z,9.65
2023-03-24T06:08:38.345Z,9.17
2023-03-24T06:11:08.159Z,9.30
2023-03-24T06:13:46.397Z,6.90
2023-03-24T06:16:14.345Z,7.00
2023-03-24T06:18:53.220Z,7.63
2023-03-24T06:21:50.540Z,5.68
2023-03-24T06:24:21.547Z,3.80
2023-03-24T06:26:51.376Z,2.58
2023-03-24T06:29:19.588Z,2.63
2023-03-24T06:31:49.758Z,2.53
2023-03-24T06:36:58.342Z,1.90
2023-03-24T06:39:26.332Z,2.30
2023-03-24T06:41:55.948Z,2.38
2023-03-24T06:44:24.126Z,2.13
2023-03-24T06:46:51.956Z,2.92
2023-03-24T06:49:19.870Z,2.20
2023-03-24T06:51:47.823Z,3.25
2023-03-24T06:54:18.483Z,3.47
2023-03-24T06:56:46.355Z,2.58
2023-03-24T06:59:17.729Z,3.50
2023-03-24T07:01:48.225Z,3.78
2023-03-24T07:04:27.694Z,4.43
2023-03-24T07:07:38.070Z,5.03
2023-03-24T07:10:13.846Z,5.07
2023-03-24T07:12:41.822Z,4.65
2023-03-24T07:15:12.086Z,4.63
2023-03-24T07:17:42.190Z,5.10
2023-03-24T07:20:18.192Z,3.92
2023-03-24T07:22:57.414Z,3.83
2023-03-24T07:25:26.148Z,4.30
2023-03-24T07:28:03.846Z,4.85
2023-03-24T07:30:39.692Z,4.22
2023-03-24T07:33:21.126Z,3.85
2023-03-24T07:35:49.088Z,3.63
2023-03-24T07:38:18.187Z,3.42
2023-03-24T07:40:49.338Z,2.97
2023-03-24T07:43:17.174Z,2.58
2023-03-24T07:46:19.099Z,3.30
2023-03-24T07:48:47.796Z,2.47
2023-03-24T07:51:19.859Z,2.25
2023-03-24T07:54:03.346Z,2.80
2023-03-24T07:56:38.534Z,4.90
2023-03-24T07:59:09.620Z,1.70
2023-03-24T08:01:55.953Z,3.03
2023-03-24T08:04:40.022Z,3.13
2023-03-24T08:07:31.120Z,3.45
2023-03-24T08:09:58.942Z,3.65
2023-03-24T08:12:27.051Z,4.13
2023-03-24T08:14:54.890Z,5.32
2023-03-24T08:17:24.430Z,5.22
2023-03-24T08:19:59.501Z,4.78
2023-03-24T08:22:29.195Z,7.03
2023-03-24T08:24:57.060Z,3.45
2023-03-24T08:27:24.899Z,5.28
2023-03-24T08:29:52.688Z,5.15
2023-03-24T08:32:20.548Z,5.97
2023-03-24T08:34:49.711Z,4.85
2023-03-24T08:37:17.528Z,5.38
2023-03-24T08:39:45.606Z,7.60
2023-03-24T08:42:13.432Z,4.25
2023-03-24T08:44:41.855Z,5.00
2023-03-24T08:47:09.658Z,4.72
2023-03-24T08:49:37.947Z,5.43
2023-03-24T08:52:08.391Z,4.30
2023-03-24T08:54:37.134Z,6.63
2023-03-24T08:57:05.270Z,9.90
2023-03-24T08:59:33.119Z,5.75
2023-03-24T09:02:01.254Z,4.95
2023-03-24T09:04:29.171Z,5.97
2023-03-24T09:07:02.248Z,5.13
2023-03-24T09:09:32.211Z,7.38
2023-03-24T09:12:00.116Z,4.78
2023-03-24T09:14:27.956Z,7.90
2023-03-24T09:16:56.143Z,5.93
2023-03-24T09:19:24.026Z,6.47
2023-03-24T09:21:51.874Z,5.63
2023-03-24T09:24:19.685Z,7.20
2023-03-24T09:26:48.879Z,6.47
2023-03-24T09:29:16.725Z,6.75
2023-03-24T09:31:44.591Z,8.95
2023-03-24T09:34:12.444Z,4.63
2023-03-24T09:36:40.258Z,4.68
2023-03-24T09:39:08.712Z,4.40
2023-03-24T09:41:36.631Z,6.57
2023-03-24T09:44:13.889Z,6.28
2023-03-24T09:46:46.387Z,7.50
2023-03-24T09:49:18.597Z,5.53
2023-03-24T09:51:47.651Z,6.80
2023-03-24T09:54:22.384Z,6.53
2023-03-24T09:56:53.926Z,6.50
2023-03-24T09:59:32.057Z,7.35
2023-03-24T10:02:00.025Z,8.25
2023-03-24T10:04:32.058Z,7.85
2023-03-24T10:07:08.585Z,4.45
2023-03-24T10:09:37.238Z,6.07
2023-03-24T10:12:21.436Z,7.68
2023-03-24T10:15:05.591Z,5.47
2023-03-24T10:17:42.981Z,6.97
2023-03-24T10:20:21.715Z,4.95
2023-03-24T10:23:00.230Z,5.55
2023-03-24T10:25:45.890Z,7.05
2023-03-24T10:28:20.862Z,8.10
2023-03-24T10:30:52.660Z,9.65
2023-03-24T10:33:20.919Z,6.07
2023-03-24T10:35:57.002Z,9.90
2023-03-24T10:38:25.191Z,4.70
2023-03-24T10:40:54.835Z,5.72
2023-03-24T10:43:27.139Z,6.10
2023-03-24T10:45:59.234Z,6.53
2023-03-24T10:48:44.204Z,4.50
2023-03-24T10:51:29.423Z,5.68
2023-03-24T10:54:12.598Z,8.00
2023-03-24T10:56:42.633Z,5.18
2023-03-24T10:59:22.890Z,6.88
2023-03-24T11:01:57.477Z,6.80
2023-03-24T11:04:25.549Z,5.80
2023-03-24T11:07:05.518Z,6.22
2023-03-24T11:09:40.709Z,7.55
2023-03-24T11:12:22.189Z,5.50
2023-03-24T11:14:50.012Z,7.95
2023-03-24T11:17:23.009Z,7.07
2023-03-24T11:19:53.520Z,5.75
2023-03-24T11:22:21.917Z,6.47
2023-03-24T11:24:53.502Z,7.05
2023-03-24T11:27:21.486Z,6.30
2023-03-24T11:29:53.825Z,8.68
2023-03-24T11:32:29.873Z,7.68
2023-03-24T11:35:06.194Z,6.32
2023-03-24T11:37:36.084Z,7.35
2023-03-24T11:40:18.599Z,7.13
2023-03-24T11:42:48.028Z,6.20
2023-03-24T11:45:29.202Z,5.18
2023-03-24T11:47:59.970Z,8.02
2023-03-24T11:50:31.331Z,8.77
2023-03-24T11:53:06.211Z,7.55
2023-03-24T11:55:38.075Z,10.90
2023-03-24T11:58:13.653Z,7.43
2023-03-24T12:00:45.649Z,7.93
2023-03-24T12:04:00.109Z,6.38
2023-03-24T12:06:41.505Z,9.23
2023-03-24T12:09:20.984Z,6.53
2023-03-24T12:12:09.473Z,6.90
2023-03-24T12:14:52.112Z,7.57
2023-03-24T12:17:23.911Z,7.47
2023-03-24T12:20:18.201Z,8.15
2023-03-24T12:22:57.801Z,7.80
2023-03-24T12:25:39.190Z,5.13
2023-03-24T12:28:25.218Z,7.97
2023-03-24T12:31:04.517Z,6.53
2023-03-24T12:33:44.937Z,9.25
2023-03-24T12:36:32.589Z,6.00
2023-03-24T12:39:09.662Z,6.35
2023-03-24T12:42:08.882Z,10.23
2023-03-24T12:44:56.957Z,8.68
2023-03-24T12:47:43.514Z,4.68
2023-03-24T12:50:26.069Z,5.50
2023-03-24T12:53:08.745Z,7.82
2023-03-24T12:55:44.114Z,8.40
2023-03-24T12:58:19.214Z,4.57
2023-03-24T13:01:02.610Z,4.15
2023-03-24T13:03:38.735Z,5.40
2023-03-24T13:06:17.704Z,5.30
2023-03-24T13:08:57.856Z,5.07
2023-03-24T13:11:35.715Z,6.13
2023-03-24T13:14:06.441Z,5.57
2023-03-24T13:16:39.172Z,5.20
2023-03-24T13:19:18.902Z,6.07
2023-03-24T13:21:47.832Z,7.93
2023-03-24T13:24:19.367Z,6.47
2023-03-24T13:26:55.569Z,5.72
2023-03-24T13:29:48.445Z,8.65
2023-03-24T13:32:26.709Z,8.40
2023-03-24T13:34:59.877Z,6.43
2023-03-24T13:37:34.091Z,6.38
2023-03-24T13:40:11.453Z,6.95
2023-03-24T13:42:46.527Z,6.15
2023-03-24T13:45:27.066Z,4.80
2023-03-24T13:48:06.520Z,5.80
2023-03-24T13:50:35.724Z,10.63
2023-03-24T13:53:08.548Z,6.72
2023-03-24T13:55:40.892Z,5.35
2023-03-24T13:58:16.487Z,5.15
2023-03-24T14:01:06.784Z,4.38
2023-03-24T14:06:06.329Z,3.78
2023-03-24T14:08:43.831Z,6.55
2023-03-24T14:11:45.582Z,4.22
2023-03-24T14:14:24.104Z,4.88
2023-03-24T14:17:03.100Z,8.15
2023-03-24T14:19:32.608Z,9.00
2023-03-24T14:22:11.350Z,6.90
2023-03-24T14:24:40.295Z,3.85
2023-03-24T14:27:42.436Z,3.30
2023-03-24T14:30:20.228Z,5.65
2023-03-24T14:32:50.165Z,6.07
2023-03-24T14:35:30.840Z,7.78
2023-03-24T14:38:01.611Z,6.60
2023-03-24T14:40:34.617Z,4.82
2023-03-24T14:43:24.666Z,6.57
2023-03-24T14:45:58.331Z,3.90
2023-03-24T14:48:36.123Z,6.00
2023-03-24T14:51:13.848Z,7.40
2023-03-24T14:53:42.434Z,7.63
2023-03-24T14:56:15.858Z,2.90
2023-03-24T14:58:48.669Z,4.68
2023-03-24T15:01:18.190Z,4.75
2023-03-24T15:03:56.652Z,6.70
2023-03-24T15:06:25.081Z,5.25
2023-03-24T15:08:54.113Z,6.18
2023-03-24T15:11:25.979Z,5.93
2023-03-24T15:13:57.334Z,7.65
2023-03-24T15:16:27.034Z,6.00
2023-03-24T15:19:01.817Z,5.35
2023-03-24T15:21:34.202Z,4.97
2023-03-24T15:24:03.562Z,3.58
2023-03-24T15:26:32.872Z,6.20
2023-03-24T15:29:06.334Z,4.93
2023-03-24T15:31:34.619Z,3.80
2023-03-24T15:34:07.945Z,4.30
2023-03-24T15:36:40.929Z,4.63
2023-03-24T15:39:20.828Z,4.00
2023-03-24T15:41:52.845Z,6.72
2023-03-24T15:44:25.910Z,6.03
2023-03-24T15:46:56.621Z,5.15
2023-03-24T15:49:27.637Z,6.18
2023-03-24T15:52:00.306Z,6.50
2023-03-24T15:54:30.988Z,4.45
2023-03-24T15:57:04.543Z,8.98
2023-03-24T15:59:38.122Z,5.95
2023-03-24T16:02:13.806Z,7.10
2023-03-24T16:04:41.841Z,6.90
2023-03-24T16:07:29.544Z,4.93
2023-03-24T16:10:04.637Z,4.38
2023-03-24T16:12:34.237Z,5.05
2023-03-24T16:15:05.622Z,3.90
2023-03-24T16:17:34.039Z,2.50
2023-03-24T16:20:01.938Z,3.60
2023-03-24T16:22:29.871Z,2.35
2023-03-24T16:24:57.909Z,2.25
2023-03-24T16:27:25.784Z,1.70
2023-03-24T16:29:53.740Z,2.20
2023-03-24T16:32:23.029Z,3.38
2023-03-24T16:34:51.036Z,1.48
2023-03-24T16:37:19.459Z,2.95
2023-03-24T16:39:47.418Z,5.07
2023-03-24T16:42:15.358Z,2.92
2023-03-24T16:44:43.841Z,3.55
2023-03-24T16:47:12.155Z,2.38
2023-03-24T16:49:41.368Z,5.30
2023-03-24T16:52:13.123Z,2.55
2023-03-24T16:54:41.054Z,3.38
2023-03-24T16:57:09.016Z,11.45
2023-03-24T16:59:36.915Z,6.05
2023-03-24T17:02:05.931Z,2.25
2023-03-24T17:04:35.401Z,3.85
2023-03-24T17:07:04.694Z,3.20
2023-03-24T17:09:35.245Z,2.57
2023-03-24T17:12:04.231Z,4.82
2023-03-24T17:14:32.176Z,1.85
2023-03-24T17:17:02.774Z,3.72
2023-03-24T17:19:31.030Z,7.93
2023-03-24T17:22:02.097Z,13.45
2023-03-24T17:24:35.686Z,5.18
2023-03-24T17:27:04.069Z,2.88
2023-03-24T17:29:31.971Z,3.30
2023-03-24T17:31:59.846Z,3.58
2023-03-24T17:34:27.732Z,3.15
2023-03-24T17:36:55.569Z,4.43
2023-03-24T17:39:23.380Z,3.80
2023-03-24T17:41:53.576Z,3.15
2023-03-24T17:44:21.374Z,1.85
2023-03-24T17:46:49.220Z,5.30
2023-03-24T17:49:17.120Z,2.85
2023-03-24T17:51:44.907Z,4.28
2023-03-24T17:54:13.625Z,6.13
2023-03-24T17:56:41.459Z,3.15
2023-03-24T17:59:10.723Z,2.83
2023-03-24T18:01:39.254Z,3.55
2023-03-24T18:04:07.671Z,3.72
2023-03-24T18:06:35.615Z,5.47
2023-03-24T18:09:03.437Z,4.90
2023-03-24T18:11:31.245Z,3.67
2023-03-24T18:13:59.173Z,1.85
2023-03-24T18:16:30.735Z,3.40
2023-03-24T18:19:00.577Z,3.25
2023-03-24T18:21:28.920Z,3.10
2023-03-24T18:23:57.205Z,4.22
2023-03-24T18:26:25.711Z,3.42
2023-03-24T18:28:53.595Z,4.03
2023-03-24T18:31:23.349Z,4.70
2023-03-24T18:33:54.305Z,5.03
2023-03-24T18:36:26.378Z,4.47
2023-03-24T18:38:58.271Z,2.90
2023-03-24T18:41:28.295Z,1.95
2023-03-24T18:43:57.086Z,1.95
2023-03-24T18:46:25.358Z,5.53
2023-03-24T18:48:54.722Z,2.83
2023-03-24T18:51:23.479Z,3.57
2023-03-24T18:53:51.268Z,1.73
2023-03-24T18:56:19.947Z,5.65
2023-03-24T18:58:48.721Z,2.35
2023-03-24T19:01:22.458Z,3.63
2023-03-24T19:03:52.020Z,4.97
2023-03-24T19:06:21.402Z,3.93
2023-03-24T19:08:51.979Z,4.33
2023-03-24T19:11:19.999Z,3.85
2023-03-24T19:13:50.626Z,2.25
2023-03-24T19:16:20.128Z,5.95
2023-03-24T19:18:50.579Z,3.92
2023-03-24T19:21:18.790Z,3.55
2023-03-24T19:23:49.934Z,4.78
2023-03-24T19:26:20.135Z,3.33
2023-03-24T19:28:48.391Z,2.72
2023-03-24T19:31:19.163Z,4.43
2023-03-24T19:33:48.159Z,2.67
2023-03-24T19:36:16.413Z,4.63
2023-03-24T19:38:44.275Z,7.75
2023-03-24T19:41:15.517Z,4.55
2023-03-24T19:43:43.885Z,4.82
2023-03-24T19:46:12.098Z,2.80
2023-03-24T19:48:40.017Z,12.02
2023-03-24T19:51:07.899Z,18.85
2023-03-24T19:53:35.753Z,6.03
2023-03-24T19:56:04.450Z,8.68
2023-03-24T19:58:33.679Z,4.32
2023-03-24T20:01:01.761Z,2.03
2023-03-24T20:03:29.965Z,4.57
2023-03-24T20:05:57.846Z,2.90
2023-03-24T20:08:26.081Z,4.60
2023-03-24T20:10:53.951Z,2.83
2023-03-24T20:13:24.057Z,4.13
2023-03-24T20:15:53.693Z,2.92
2023-03-24T20:18:21.669Z,2.47
2023-03-24T20:20:49.638Z,5.05
2023-03-24T20:23:17.378Z,2.60
2023-03-24T20:25:45.458Z,2.65
2023-03-24T20:28:13.334Z,7.20
2023-03-24T20:30:42.747Z,4.18
2023-03-24T20:33:12.029Z,7.07
2023-03-24T20:35:40.777Z,2.23
2023-03-24T20:38:08.676Z,2.42
2023-03-24T20:40:36.517Z,3.33
2023-03-24T20:43:04.331Z,2.13
2023-03-24T20:45:32.311Z,3.58
2023-03-24T20:48:00.308Z,4.32
2023-03-24T20:50:29.996Z,2.30
2023-03-24T20:52:58.943Z,4.20
2023-03-24T20:55:26.956Z,1.17
2023-03-24T20:57:55.916Z,5.90
2023-03-24T21:00:24.149Z,3.40
2023-03-24T21:02:52.379Z,1.92
2023-03-24T21:05:20.570Z,2.13
2023-03-24T21:07:50.026Z,1.83
2023-03-24T21:10:17.933Z,3.27
2023-03-24T21:12:54.531Z,2.40
2023-03-24T21:15:24.869Z,2.55
2023-03-24T21:20:21.082Z,2.72
2023-03-24T21:22:55.306Z,1.13
2023-03-24T21:25:25.219Z,1.50
2023-03-24T21:27:53.217Z,2.65
2023-03-24T21:30:21.811Z,5.43
2023-03-24T21:32:51.709Z,7.13
2023-03-24T21:35:20.800Z,4.20
2023-03-24T21:37:53.453Z,3.03
2023-03-24T21:40:23.618Z,3.58
2023-03-24T21:42:53.548Z,2.53
2023-03-24T21:45:24.130Z,1.83
2023-03-24T21:47:54.927Z,2.17
2023-03-24T21:50:23.983Z,3.28
2023-03-24T21:52:54.926Z,11.35
2023-03-24T21:55:25.306Z,2.30
2023-03-24T21:57:53.190Z,3.50
2023-03-24T22:00:22.924Z,2.35
2023-03-24T22:02:52.504Z,2.90
2023-03-24T22:05:22.625Z,4.05
2023-03-24T22:07:51.443Z,1.85
2023-03-24T22:10:22.764Z,2.63
2023-03-24T22:12:51.201Z,3.03
2023-03-24T22:15:19.795Z,3.65
2023-03-24T22:17:48.160Z,2.50
2023-03-24T22:20:16.587Z,4.15
2023-03-24T22:22:44.475Z,2.58
2023-03-24T22:25:14.589Z,5.57
2023-03-24T22:27:43.843Z,2.08
2023-03-24T22:30:13.976Z,1.92
2023-03-24T22:32:42.274Z,2.25
2023-03-24T22:35:10.764Z,2.90
2023-03-24T22:37:39.012Z,3.13
2023-03-24T22:40:09.152Z,3.00
2023-03-24T22:42:37.128Z,1.52
2023-03-24T22:45:07.654Z,3.05
2023-03-24T22:47:36.379Z,3.53
2023-03-24T22:50:05.016Z,1.20
2023-03-24T22:52:33.500Z,2.45
2023-03-24T22:55:01.614Z,2.58
2023-03-24T22:57:29.868Z,3.08
2023-03-24T23:00:01.868Z,2.90
2023-03-24T23:02:31.510Z,2.40
2023-03-24T23:04:59.398Z,4.63
2023-03-24T23:07:28.793Z,2.83
2023-03-24T23:09:59.408Z,3.37
2023-03-24T23:12:27.790Z,1.95
2023-03-24T23:14:55.881Z,2.63
2023-03-24T23:17:25.245Z,2.22
2023-03-24T23:19:54.741Z,1.58
2023-03-24T23:22:22.952Z,3.70
2023-03-24T23:25:00.420Z,3.72
2023-03-24T23:27:34.349Z,2.67
2023-03-24T23:30:02.840Z,2.38
2023-03-24T23:32:33.995Z,6.65
2023-03-24T23:35:03.497Z,1.77
2023-03-24T23:37:32.503Z,3.83
2023-03-24T23:40:02.459Z,1.50
2023-03-24T23:42:33.373Z,2.05
2023-03-24T23:45:01.290Z,2.95
2023-03-24T23:47:32.534Z,2.58
2023-03-24T23:50:00.657Z,1.38
2023-03-24T23:52:30.114Z,2.60
2023-03-24T23:54:58.441Z,3.23
2023-03-24T23:57:26.282Z,1.80
2023-03-24T23:59:54.842Z,1.90
